Time;durP1;ratioP1;P1;durP2;ratioP2;P2;SDS_P1;SDS_P2;PMS_P1;PMS_P2;Temp;Humidity;BMP_temperature;BMP_pressure;BME280_temperature;BME280_humidity;BME280_pressure;Samples;Min_cycle;Max_cycle;Signal;HPM_P1;HPM_P2
2021/12/18 00:01:35;;;;;;;4.20;3.02;;;;;;;1.73;78.93;100228.53;1715664;83;22818;-75
2021/12/18 00:04:02;;;;;;;3.90;2.80;;;;;;;1.72;78.94;100229.45;1723425;82;20936;-75
2021/12/18 00:06:30;;;;;;;3.62;2.90;;;;;;;1.71;78.90;100227.77;1713460;82;20977;-75
2021/12/18 00:08:57;;;;;;;5.42;2.80;;;;;;;1.71;78.90;100227.77;1699469;83;21012;-74
2021/12/18 00:11:26;;;;;;;3.20;2.50;;;;;;;1.71;78.92;100235.58;1699532;84;21103;-75
2021/12/18 00:13:53;;;;;;;3.67;2.50;;;;;;;1.71;78.87;100232.97;1699646;84;21423;-75
2021/12/18 00:16:19;;;;;;;3.55;2.72;;;;;;;1.70;78.84;100235.19;1692199;82;21017;-75
2021/12/18 00:18:48;;;;;;;3.92;2.65;;;;;;;1.70;78.84;100246.91;1710728;83;21087;-75
2021/12/18 00:21:18;;;;;;;3.12;2.20;;;;;;;1.70;78.81;100243.46;1730717;81;21282;-74
2021/12/18 00:23:44;;;;;;;2.80;2.30;;;;;;;1.72;78.82;100242.93;1726043;82;21024;-75
2021/12/18 00:26:10;;;;;;;3.65;2.35;;;;;;;1.73;78.75;100245.92;1698664;84;21821;-76
2021/12/18 00:28:37;;;;;;;5.60;2.50;;;;;;;1.72;78.69;100246.84;1701106;83;21079;-76
2021/12/18 00:31:03;;;;;;;3.42;2.30;;;;;;;1.72;78.66;100245.08;1715118;83;21394;-76
2021/12/18 00:33:32;;;;;;;4.25;2.47;;;;;;;1.70;78.59;100246.91;1715187;82;21034;-76
2021/12/18 00:35:58;;;;;;;3.92;2.62;;;;;;;1.69;78.56;100240.47;1749252;81;21028;-76
2021/12/18 00:38:29;;;;;;;4.28;2.72;;;;;;;1.68;78.53;100244.84;1783942;79;21812;-75
2021/12/18 00:41:11;;;;;;;3.35;2.70;;;;;;;1.68;78.54;100244.84;1816035;78;20987;-76
2021/12/18 00:43:29;;;;;;;4.40;2.80;;;;;;;1.69;78.52;100240.47;1789599;78;21041;-75
2021/12/18 00:45:50;;;;;;;4.05;2.77;;;;;;;1.69;78.55;100238.72;1763662;80;21036;-77
2021/12/18 00:48:17;;;;;;;5.03;3.00;;;;;;;1.68;78.52;100246.59;1778845;79;21000;-76
2021/12/18 00:50:44;;;;;;;3.95;3.15;;;;;;;1.67;78.52;100248.81;1798405;79;21724;-76
2021/12/18 00:53:10;;;;;;;5.33;2.60;;;;;;;1.66;78.51;100252.34;1767589;81;20924;-76
2021/12/18 00:55:38;;;;;;;4.75;3.08;;;;;;;1.66;78.53;100241.47;1778666;80;21041;-77
2021/12/18 00:58:04;;;;;;;3.58;2.90;;;;;;;1.66;78.55;100247.97;1779943;80;21049;-76
2021/12/18 01:00:31;;;;;;;5.33;3.00;;;;;;;1.67;78.63;100245.75;1776375;79;21545;-75
2021/12/18 01:03:01;;;;;;;3.67;3.00;;;;;;;1.66;78.57;100254.94;1817823;79;22156;-76
2021/12/18 01:05:29;;;;;;;4.03;3.22;;;;;;;1.64;78.60;100255.44;1786180;79;20997;-76
2021/12/18 01:07:57;;;;;;;5.75;3.55;;;;;;;1.64;78.66;100260.22;1782723;79;21562;-77
2021/12/18 01:10:43;;;;;;;4.37;3.02;;;;;;;1.63;78.70;100260.27;1784216;80;20988;-77
2021/12/18 01:12:58;;;;;;;7.22;3.77;;;;;;;1.58;78.79;100258.34;1777847;79;21024;-77
2021/12/18 01:15:34;;;;;;;6.45;3.87;;;;;;;1.54;78.92;100252.86;1785658;80;22446;-76
2021/12/18 01:23:30;;;;;;;5.65;3.92;;;;;;;1.40;79.36;100258.68;1786634;80;21105;-77
2021/12/18 01:25:56;;;;;;;4.70;3.87;;;;;;;1.39;79.54;100260.44;1784917;79;21099;-77
2021/12/18 01:28:24;;;;;;;3.87;3.40;;;;;;;1.38;79.63;100265.26;1773766;79;22582;-75
2021/12/18 01:30:51;;;;;;;3.85;2.98;;;;;;;1.36;79.73;100263.64;1819151;78;20922;-76
2021/12/18 01:33:19;;;;;;;4.08;3.37;;;;;;;1.34;79.81;100259.78;1814104;79;21427;-75
2021/12/18 01:35:46;;;;;;;4.08;3.45;;;;;;;1.36;79.94;100270.15;1776456;79;21037;-75
2021/12/18 01:38:12;;;;;;;4.47;3.62;;;;;;;1.35;79.97;100264.52;1773814;79;20933;-75
2021/12/18 01:40:40;;;;;;;4.40;3.30;;;;;;;1.35;80.06;100267.13;1745715;82;22764;-76
2021/12/18 01:46:03;;;;;;;3.42;2.98;;;;;;;1.33;80.21;100268.50;1758691;79;21371;-82
2021/12/18 01:53:33;;;;;;;3.58;3.05;;;;;;;1.28;80.42;100266.56;1777982;80;22255;-74
2021/12/18 01:55:59;;;;;;;3.70;2.70;;;;;;;1.26;80.57;100259.75;1777809;80;21010;-76
2021/12/18 01:58:27;;;;;;;3.05;2.70;;;;;;;1.24;80.60;100264.14;1778609;79;21508;-75
2021/12/18 02:00:58;;;;;;;3.85;3.20;;;;;;;1.26;80.69;100267.09;1778094;80;21542;-76
2021/12/18 02:03:24;;;;;;;3.85;3.00;;;;;;;1.26;80.69;100272.30;1771383;79;20962;-76
2021/12/18 02:05:51;;;;;;;4.83;3.05;;;;;;;1.29;80.76;100264.81;1759290;79;21818;-76
2021/12/18 02:08:21;;;;;;;3.80;3.10;;;;;;;1.29;80.76;100271.31;1790029;79;20996;-76
2021/12/18 02:10:54;;;;;;;3.55;3.20;;;;;;;1.30;80.77;100274.30;1767280;81;20978;-76
2021/12/18 02:13:36;;;;;;;3.65;2.90;;;;;;;1.28;80.80;100270.92;1765291;79;21099;-74
2021/12/18 02:21:24;;;;;;;3.17;2.85;;;;;;;1.26;80.89;100270.16;1745816;80;20957;-75
2021/12/18 02:23:51;;;;;;;3.75;2.90;;;;;;;1.25;80.91;100279.69;1769800;80;20997;-75
2021/12/18 02:26:21;;;;;;;3.90;2.72;;;;;;;1.27;80.98;100274.44;1769287;80;21012;-75
2021/12/18 02:28:49;;;;;;;3.52;2.80;;;;;;;1.24;80.93;100273.25;1768495;79;21008;-74
2021/12/18 02:31:16;;;;;;;3.47;2.80;;;;;;;1.19;80.95;100280.42;1780963;79;21806;-74
2021/12/18 02:33:44;;;;;;;3.52;2.90;;;;;;;1.18;81.01;100281.34;1802045;79;21001;-74
2021/12/18 02:36:19;;;;;;;3.65;2.72;;;;;;;1.17;81.09;100279.19;1753694;79;20973;-74
2021/12/18 02:41:35;;;;;;;4.95;2.77;;;;;;;1.20;81.21;100280.81;1806634;79;21027;-74
2021/12/18 02:44:01;;;;;;;2.50;2.10;;;;;;;1.21;81.22;100281.20;1755634;79;21850;-75
2021/12/18 02:46:28;;;;;;;2.90;2.52;;;;;;;1.21;81.26;100285.09;1771957;79;21000;-75
2021/12/18 02:48:56;;;;;;;3.05;2.67;;;;;;;1.21;81.30;100294.20;1778474;80;21506;-74
2021/12/18 02:51:22;;;;;;;3.15;2.33;;;;;;;1.23;81.35;100297.58;1782488;80;21294;-74
2021/12/18 02:53:51;;;;;;;3.83;2.70;;;;;;;1.23;81.33;100298.88;1781485;80;20988;-75
2021/12/18 02:56:23;;;;;;;3.10;2.42;;;;;;;1.21;81.35;100300.25;1731882;81;21837;-75
2021/12/18 02:58:52;;;;;;;2.50;2.22;;;;;;;1.23;81.39;100307.53;1756872;79;20993;-76
2021/12/18 03:01:22;;;;;;;3.42;2.55;;;;;;;1.25;81.37;100310.06;1771064;79;21036;-75
2021/12/18 03:03:50;;;;;;;3.50;2.60;;;;;;;1.25;81.40;100308.30;1753933;79;21080;-75
2021/12/18 03:06:29;;;;;;;3.10;2.67;;;;;;;1.26;81.37;100309.19;1775394;79;21058;-75
2021/12/18 03:24:55;;;;;;;3.00;2.60;;;;;;;1.18;81.17;100323.80;1753720;79;20985;-74
2021/12/18 03:27:12;;;;;;;3.05;2.45;;;;;;;1.19;81.19;100334.59;1749387;79;20977;-73
2021/12/18 03:29:38;;;;;;;2.50;2.30;;;;;;;1.21;81.20;100337.12;1790454;79;20984;-74
2021/12/18 03:32:06;;;;;;;3.10;2.52;;;;;;;1.24;81.21;100344.34;1809124;79;21351;-74
2021/12/18 03:34:32;;;;;;;2.80;2.35;;;;;;;1.25;81.20;100343.89;1778225;79;21833;-74
2021/12/18 03:37:00;;;;;;;2.92;2.45;;;;;;;1.26;81.17;100339.95;1778599;79;20941;-74
2021/12/18 03:39:26;;;;;;;3.02;2.47;;;;;;;1.25;81.12;100344.73;1750136;80;21500;-74
2021/12/18 03:41:53;;;;;;;3.00;2.40;;;;;;;1.26;81.09;100343.00;1739047;82;20996;-74
2021/12/18 03:44:20;;;;;;;2.72;2.25;;;;;;;1.29;81.11;100357.18;1749249;80;20989;-74
2021/12/18 03:46:47;;;;;;;3.75;2.60;;;;;;;1.28;81.04;100350.28;1767490;80;21827;-74
2021/12/18 03:49:14;;;;;;;4.95;2.55;;;;;;;1.29;81.03;100358.48;1775858;80;21035;-73
2021/12/18 03:51:41;;;;;;;3.17;2.58;;;;;;;1.31;80.97;100366.61;1767275;80;20945;-73
2021/12/18 03:54:08;;;;;;;2.75;2.27;;;;;;;1.33;80.96;100362.17;1767365;80;21040;-73
2021/12/18 03:56:35;;;;;;;2.60;2.15;;;;;;;1.35;80.93;100368.19;1761460;79;21408;-74
2021/12/18 03:59:01;;;;;;;3.62;2.33;;;;;;;1.37;80.89;100367.66;1775853;79;21829;-74
2021/12/18 04:01:30;;;;;;;3.20;2.40;;;;;;;1.37;80.70;100378.07;1775699;79;21454;-74
2021/12/18 04:03:56;;;;;;;2.60;2.33;;;;;;;1.36;80.60;100376.84;1748566;79;20961;-74
2021/12/18 04:06:24;;;;;;;3.27;2.62;;;;;;;1.34;80.54;100379.94;1787147;79;20921;-75
2021/12/18 04:08:50;;;;;;;2.95;2.37;;;;;;;1.31;80.43;100388.72;1767574;81;20948;-75
2021/12/18 04:11:16;;;;;;;3.67;2.33;;;;;;;1.28;80.41;100382.81;1770667;80;21778;-74
2021/12/18 04:13:46;;;;;;;3.40;2.47;;;;;;;1.31;80.41;100386.58;1777988;80;20937;-74
2021/12/18 04:16:13;;;;;;;2.58;2.20;;;;;;;1.31;80.41;100395.23;1776203;79;20929;-75
2021/12/18 04:18:40;;;;;;;4.95;3.67;;;;;;;1.31;80.35;100393.08;1794508;80;21332;-76
2021/12/18 04:21:08;;;;;;;4.30;3.25;;;;;;;1.28;80.20;100410.13;1789978;79;20999;-76
2021/12/18 04:23:35;;;;;;;3.92;3.20;;;;;;;1.27;80.21;100412.34;1800360;79;21558;-76
2021/12/18 04:26:03;;;;;;;3.80;3.40;;;;;;;1.27;80.21;100413.64;1775594;80;20940;-74
2021/12/18 04:28:47;;;;;;;2.90;2.60;;;;;;;1.28;80.20;100416.64;1793070;79;21001;-74
2021/12/18 04:31:14;;;;;;;4.00;3.60;;;;;;;1.26;80.08;100417.16;1809960;79;20941;-74
2021/12/18 04:33:41;;;;;;;3.75;3.25;;;;;;;1.26;80.06;100417.16;1792329;79;20940;-74
2021/12/18 04:36:07;;;;;;;3.52;2.50;;;;;;;1.27;80.05;100417.55;1777681;80;22442;-75
2021/12/18 04:38:34;;;;;;;4.80;2.67;;;;;;;1.28;80.06;100425.74;1748797;79;21361;-75
2021/12/18 04:41:02;;;;;;;2.55;2.35;;;;;;;1.29;80.05;100428.27;1756076;79;20949;-76
2021/12/18 04:43:29;;;;;;;3.45;2.10;;;;;;;1.29;79.98;100430.03;1737972;82;21056;-76
2021/12/18 04:45:56;;;;;;;3.22;2.17;;;;;;;1.28;79.84;100429.19;1739009;81;21065;-76
2021/12/18 04:48:23;;;;;;;11.30;7.12;;;;;;;1.27;79.73;100434.45;1701050;83;21844;-76
2021/12/18 04:50:49;;;;;;;5.00;3.20;;;;;;;1.26;79.70;100431.02;1738874;82;20910;-76
2021/12/18 04:53:16;;;;;;;3.47;2.40;;;;;;;1.27;79.74;100430.10;1705234;82;21563;-75
2021/12/18 04:55:42;;;;;;;4.05;2.42;;;;;;;1.30;79.74;100436.47;1766857;80;21013;-75
2021/12/18 04:58:08;;;;;;;3.15;2.27;;;;;;;1.33;79.71;100446.75;1768819;80;21482;-75
2021/12/18 05:00:38;;;;;;;2.22;1.70;;;;;;;1.34;79.70;100441.09;1778035;80;22658;-75
2021/12/18 05:03:07;;;;;;;2.20;1.87;;;;;;;1.31;79.53;100445.12;1788356;79;20952;-75
2021/12/18 05:05:34;;;;;;;2.80;1.92;;;;;;;1.28;79.51;100445.25;1785423;79;20921;-75
2021/12/18 05:08:02;;;;;;;2.17;1.80;;;;;;;1.27;79.52;100443.11;1777625;79;21085;-75
2021/12/18 05:10:29;;;;;;;2.52;1.85;;;;;;;1.24;79.42;100448.87;1772735;80;21012;-76
2021/12/18 05:12:55;;;;;;;2.95;1.75;;;;;;;1.20;79.44;100454.66;1774846;80;21832;-76
2021/12/18 05:15:22;;;;;;;3.15;1.90;;;;;;;1.16;79.46;100459.60;1769156;80;21396;-75
2021/12/18 05:17:48;;;;;;;2.70;1.95;;;;;;;1.11;79.47;100460.22;1767155;81;21455;-75
2021/12/18 05:20:16;;;;;;;2.50;1.92;;;;;;;1.04;79.53;100461.36;1774474;80;21066;-75
2021/12/18 05:22:43;;;;;;;2.70;1.67;;;;;;;0.98;79.66;100463.77;1780160;79;21051;-74
2021/12/18 05:25:09;;;;;;;4.12;2.30;;;;;;;0.96;79.76;100468.15;1773586;79;21808;-74
2021/12/18 05:27:37;;;;;;;27.55;18.82;;;;;;;0.96;79.86;100467.30;1777795;79;21036;-75
2021/12/18 05:30:07;;;;;;;20.23;13.83;;;;;;;0.95;79.92;100473.41;1780345;79;21392;-76
2021/12/18 05:32:33;;;;;;;20.27;12.63;;;;;;;0.96;79.94;100468.61;1758521;80;20958;-75
2021/12/18 05:35:00;;;;;;;44.63;23.18;;;;;;;0.92;79.96;100470.48;1776737;80;21460;-74
2021/12/18 05:37:45;;;;;;;78.37;39.27;;;;;;;0.89;80.01;100471.91;1787422;80;22523;-74
2021/12/18 05:40:00;;;;;;;28.30;13.55;;;;;;;0.89;80.04;100467.17;1789073;79;21384;-74
2021/12/18 05:42:27;;;;;;;36.55;16.57;;;;;;;0.88;79.99;100471.52;1783903;78;21013;-74
2021/12/18 05:44:55;;;;;;;38.05;18.67;;;;;;;0.87;80.00;100475.03;1764644;80;21062;-74
2021/12/18 05:47:21;;;;;;;54.05;28.55;;;;;;;0.86;79.83;100479.36;1763757;79;21480;-73
2021/12/18 05:49:48;;;;;;;30.45;17.92;;;;;;;0.87;79.79;100482.83;1789128;80;21833;-74
2021/12/18 05:52:14;;;;;;;6.35;3.60;;;;;;;0.88;79.77;100484.98;1787476;80;21142;-74
2021/12/18 05:54:41;;;;;;;5.55;2.22;;;;;;;0.90;79.66;100485.31;1788807;79;20940;-74
2021/12/18 05:57:14;;;;;;;21.90;12.10;;;;;;;0.89;79.52;100490.57;1796163;78;21004;-74
2021/12/18 05:59:37;;;;;;;6.50;4.10;;;;;;;0.91;79.49;100495.25;1762209;81;21541;-76
2021/12/18 06:02:04;;;;;;;5.37;3.58;;;;;;;0.91;79.38;100505.20;1787318;79;21729;-75
2021/12/18 06:04:31;;;;;;;3.37;2.50;;;;;;;0.91;79.34;100502.60;1764907;80;20988;-75
2021/12/18 06:07:04;;;;;;;3.72;2.17;;;;;;;0.91;79.24;100505.20;1774643;78;21004;-75
2021/12/18 06:09:28;;;;;;;3.33;2.00;;;;;;;0.92;79.20;100506.05;1780328;80;21421;-75
2021/12/18 06:11:56;;;;;;;2.47;1.62;;;;;;;0.94;79.16;100506.38;1795758;78;21035;-75
2021/12/18 06:14:22;;;;;;;2.33;1.60;;;;;;;0.95;79.08;100510.67;1775393;78;21809;-80
2021/12/18 06:16:48;;;;;;;1.82;1.40;;;;;;;0.97;79.04;100514.09;1787770;78;20976;-77
2021/12/18 06:19:16;;;;;;;2.12;1.50;;;;;;;0.99;79.04;100520.07;1764819;80;21088;-79
2021/12/18 06:21:42;;;;;;;3.10;1.45;;;;;;;1.02;79.01;100529.50;1786984;78;21448;-83
2021/12/18 06:24:10;;;;;;;2.22;1.52;;;;;;;1.01;78.91;100535.16;1781358;80;20992;-79
2021/12/18 06:26:37;;;;;;;2.33;1.80;;;;;;;1.00;78.91;100537.37;1734651;82;21848;-82
2021/12/18 06:29:03;;;;;;;2.42;1.72;;;;;;;0.96;78.82;100541.42;1758075;81;20932;-79
2021/12/18 06:31:33;;;;;;;12.07;8.63;;;;;;;0.95;78.87;100546.23;1765068;78;21000;-78
2021/12/18 06:34:00;;;;;;;21.40;13.32;;;;;;;0.96;78.89;100547.47;1700902;82;20980;-78
2021/12/18 06:36:26;;;;;;;6.25;4.37;;;;;;;0.96;78.92;100544.02;1784830;79;21506;-80
2021/12/18 06:38:53;;;;;;;2.87;2.12;;;;;;;0.97;78.97;100549.20;1762995;80;21842;-79
2021/12/18 06:41:19;;;;;;;2.70;2.25;;;;;;;0.98;78.93;100553.48;1792226;79;20980;-81
2021/12/18 06:43:46;;;;;;;3.45;2.37;;;;;;;0.99;78.90;100555.63;1762153;80;21044;-76
2021/12/18 06:46:12;;;;;;;2.42;1.62;;;;;;;0.99;78.90;100555.18;1775932;79;21044;-78
2021/12/18 06:48:38;;;;;;;3.55;2.08;;;;;;;1.01;78.83;100555.97;1782075;80;20941;-85
2021/12/18 06:51:05;;;;;;;2.60;1.77;;;;;;;1.02;78.77;100558.11;1794330;80;21834;-78
2021/12/18 06:53:32;;;;;;;2.70;1.70;;;;;;;1.01;78.77;100557.27;1771277;80;21412;-79
2021/12/18 06:55:59;;;;;;;2.90;1.65;;;;;;;1.01;78.62;100562.47;1772286;80;21001;-79
2021/12/18 06:58:25;;;;;;;2.33;1.90;;;;;;;1.02;78.57;100560.72;1774107;80;20965;-84
2021/12/18 07:00:53;;;;;;;2.05;1.55;;;;;;;1.05;78.56;100567.09;1766147;80;21121;-78
2021/12/18 07:03:20;;;;;;;2.08;1.60;;;;;;;1.06;78.57;100567.06;1775016;79;22258;-79
2021/12/18 07:05:48;;;;;;;3.02;1.82;;;;;;;1.08;78.51;100563.95;1756811;80;21466;-77
2021/12/18 07:08:15;;;;;;;2.00;1.55;;;;;;;1.09;78.42;100564.34;1697373;83;20997;-75
2021/12/18 07:10:41;;;;;;;2.22;1.80;;;;;;;1.09;78.33;100573.44;1696169;83;20968;-78
2021/12/18 07:13:08;;;;;;;2.58;1.90;;;;;;;1.10;78.21;100572.98;1728374;81;21446;-81
2021/12/18 07:15:34;;;;;;;2.70;1.50;;;;;;;1.12;78.18;100573.77;1727742;82;22209;-78
2021/12/18 07:18:01;;;;;;;3.25;1.90;;;;;;;1.13;78.08;100580.21;1727435;81;21119;-78
2021/12/18 07:20:28;;;;;;;2.77;1.77;;;;;;;1.13;77.97;100584.11;1723826;81;21052;-75
2021/12/18 07:22:54;;;;;;;2.95;1.62;;;;;;;1.16;77.98;100581.88;1729015;81;21103;-80
2021/12/18 07:25:21;;;;;;;2.62;1.90;;;;;;;1.18;77.89;100585.27;1734211;81;20964;-74
2021/12/18 07:27:47;;;;;;;2.40;1.70;;;;;;;1.20;77.73;100593.00;1794895;79;22228;-77
2021/12/18 07:30:15;;;;;;;2.42;2.00;;;;;;;1.20;77.70;100576.09;1776392;79;21020;-78
2021/12/18 07:32:42;;;;;;;4.55;2.50;;;;;;;1.19;77.55;100581.75;1751473;80;20965;-74
2021/12/18 07:35:10;;;;;;;3.58;3.15;;;;;;;1.21;77.51;100581.69;1784363;79;20972;-77
2021/12/18 07:37:37;;;;;;;2.62;2.10;;;;;;;1.21;77.49;100582.98;1809494;79;21474;-78
2021/12/18 07:40:07;;;;;;;4.45;2.00;;;;;;;1.24;77.44;100590.22;1779078;80;21824;-77
2021/12/18 07:42:36;;;;;;;2.67;1.90;;;;;;;1.25;77.40;100589.77;1775078;79;21028;-75
2021/12/18 07:45:03;;;;;;;3.90;2.50;;;;;;;1.24;77.20;100589.37;1794229;79;20980;-72
2021/12/18 07:47:30;;;;;;;3.65;2.80;;;;;;;1.25;77.18;100594.96;1772953;79;21047;-76
2021/12/18 07:49:56;;;;;;;2.17;1.62;;;;;;;1.25;77.13;100596.27;1760405;80;21477;-76
2021/12/18 07:52:24;;;;;;;2.70;1.87;;;;;;;1.27;77.06;100596.63;1766333;80;21790;-74
2021/12/18 07:54:51;;;;;;;2.80;1.55;;;;;;;1.27;76.97;100597.08;1786649;80;20920;-78
2021/12/18 07:57:17;;;;;;;3.27;2.12;;;;;;;1.29;76.92;100596.11;1793015;80;20995;-75
2021/12/18 07:59:44;;;;;;;3.00;2.40;;;;;;;1.31;76.93;100600.80;1762887;80;20960;-73
2021/12/18 08:02:11;;;;;;;2.65;1.62;;;;;;;1.35;76.85;100601.52;1775632;79;21063;-75
2021/12/18 08:04:37;;;;;;;2.10;1.60;;;;;;;1.34;76.51;100603.73;1754655;79;21825;-77
2021/12/18 08:07:04;;;;;;;2.80;2.00;;;;;;;1.34;76.42;100602.42;1773540;79;21088;-80
2021/12/18 08:09:30;;;;;;;3.08;1.82;;;;;;;1.36;76.29;100604.55;1767990;80;20984;-75
2021/12/18 08:11:57;;;;;;;2.62;1.72;;;;;;;1.34;76.13;100605.88;1772851;79;21137;-71
2021/12/18 08:14:25;;;;;;;3.52;1.70;;;;;;;1.35;76.06;100602.39;1775673;79;20952;-75
2021/12/18 08:16:51;;;;;;;3.05;1.42;;;;;;;1.35;75.91;100601.52;1771316;80;22566;-76
2021/12/18 08:19:18;;;;;;;5.10;1.57;;;;;;;1.36;75.89;100604.09;1768511;80;21000;-74
2021/12/18 08:21:44;;;;;;;2.00;1.65;;;;;;;1.34;75.67;100603.27;1785882;78;20976;-73
2021/12/18 08:24:10;;;;;;;2.70;1.67;;;;;;;1.36;75.73;100602.79;1761371;79;21032;-74
2021/12/18 08:26:38;;;;;;;1.45;1.30;;;;;;;1.37;75.57;100609.69;1795811;79;21060;-76
2021/12/18 08:29:04;;;;;;;1.95;1.22;;;;;;;1.37;75.40;100610.14;1783863;79;21719;-77
2021/12/18 08:31:31;;;;;;;1.60;1.27;;;;;;;1.36;75.27;100607.99;1780159;79;21013;-75
2021/12/18 08:33:57;;;;;;;6.28;4.05;;;;;;;1.33;74.98;100605.48;1755174;79;21027;-80
2021/12/18 08:36:23;;;;;;;5.03;3.50;;;;;;;1.34;75.08;100609.78;1773547;79;21542;-73
2021/12/18 08:38:50;;;;;;;9.73;6.47;;;;;;;1.32;74.88;100612.05;1774379;79;21048;-77
2021/12/18 08:41:17;;;;;;;14.78;10.38;;;;;;;1.32;74.98;100610.75;1777424;79;22183;-78
2021/12/18 08:43:44;;;;;;;4.37;2.92;;;;;;;1.33;74.93;100616.34;1745106;81;21345;-76
2021/12/18 08:46:11;;;;;;;12.43;8.30;;;;;;;1.33;74.83;100615.89;1737001;82;20970;-77
2021/12/18 08:48:38;;;;;;;14.20;9.70;;;;;;;1.34;74.77;100610.23;1739058;81;20998;-78
2021/12/18 08:51:04;;;;;;;2.87;2.12;;;;;;;1.34;74.82;100607.17;1702839;83;21009;-77
2021/12/18 08:53:31;;;;;;;2.02;1.57;;;;;;;1.31;74.65;100612.51;1741547;81;21846;-81
2021/12/18 08:55:57;;;;;;;2.40;1.70;;;;;;;1.31;74.58;100607.30;1682052;84;21093;-79
2021/12/18 08:58:24;;;;;;;2.27;1.55;;;;;;;1.29;74.54;100608.27;1693618;84;20976;-79
2021/12/18 09:00:50;;;;;;;1.85;1.67;;;;;;;1.27;74.33;100608.79;1767499;81;21041;-80
2021/12/18 09:03:16;;;;;;;2.92;2.00;;;;;;;1.28;74.28;100609.18;1767429;81;21035;-77
2021/12/18 09:05:43;;;;;;;4.37;2.37;;;;;;;1.25;74.16;100608.82;1749178;81;21834;-79
2021/12/18 09:08:10;;;;;;;3.90;2.40;;;;;;;1.27;74.14;100610.09;1748220;81;21020;-77
2021/12/18 09:10:36;;;;;;;6.00;3.35;;;;;;;1.27;74.17;100612.69;1767187;81;21040;-80
2021/12/18 09:13:03;;;;;;;5.67;3.47;;;;;;;1.28;74.01;100619.59;1766114;81;20945;-79
2021/12/18 09:15:29;;;;;;;5.40;3.22;;;;;;;1.28;74.14;100619.59;1749303;81;21460;-78
2021/12/18 09:17:56;;;;;;;2.90;2.00;;;;;;;1.32;74.29;100619.86;1707216;83;22236;-76
2021/12/18 09:20:23;;;;;;;2.65;2.10;;;;;;;1.33;74.17;100623.70;1766818;80;20981;-77
2021/12/18 09:22:49;;;;;;;4.37;1.72;;;;;;;1.36;74.18;100622.76;1746139;81;21012;-83
2021/12/18 09:25:16;;;;;;;2.42;1.50;;;;;;;1.36;74.09;100623.61;1737241;82;21056;-80
2021/12/18 09:27:42;;;;;;;2.50;1.70;;;;;;;1.35;73.79;100621.03;1737223;82;21091;-79
2021/12/18 09:30:12;;;;;;;2.10;1.42;;;;;;;1.30;73.59;100612.56;1707815;82;21515;-79
2021/12/18 09:32:39;;;;;;;2.35;1.65;;;;;;;1.27;73.45;100623.10;1696653;84;21017;-79
2021/12/18 09:35:08;;;;;;;5.20;3.12;;;;;;;1.25;73.47;100619.69;1758396;81;21042;-81
2021/12/18 09:37:35;;;;;;;2.58;1.82;;;;;;;1.25;73.35;100623.59;1753166;80;21487;-82
2021/12/18 09:40:03;;;;;;;2.45;1.62;;;;;;;1.22;73.34;100616.75;1776911;80;21035;-76
2021/12/18 09:42:31;;;;;;;2.25;1.40;;;;;;;1.21;73.32;100620.27;1775634;80;21781;-75
2021/12/18 09:44:58;;;;;;;2.50;1.70;;;;;;;1.23;73.41;100616.30;1756116;80;21025;-77
2021/12/18 09:47:24;;;;;;;1.70;1.20;;;;;;;1.23;73.40;100623.65;1758148;80;21329;-77
2021/12/18 09:49:51;;;;;;;1.72;1.20;;;;;;;1.23;73.47;100630.61;1775732;80;21082;-74
2021/12/18 09:52:17;;;;;;;2.35;1.32;;;;;;;1.23;73.37;100631.45;1774041;80;21044;-76
2021/12/18 09:54:43;;;;;;;1.42;1.30;;;;;;;1.20;73.04;100621.62;1776751;80;22640;-79
2021/12/18 09:57:10;;;;;;;2.22;1.50;;;;;;;1.14;73.00;100620.08;1776480;80;21020;-80
2021/12/18 09:59:37;;;;;;;1.85;1.45;;;;;;;1.10;73.03;100620.66;1765857;81;21016;-79
2021/12/18 10:02:03;;;;;;;2.10;1.20;;;;;;;1.10;73.13;100616.75;1770278;80;22088;-80
2021/12/18 10:04:35;;;;;;;2.12;1.30;;;;;;;1.11;73.12;100614.55;1776144;80;21044;-83
2021/12/18 10:07:22;;;;;;;2.45;1.27;;;;;;;1.12;73.01;100613.64;1776770;80;21831;-75
2021/12/18 10:09:57;;;;;;;1.70;1.20;;;;;;;1.11;72.69;100606.74;1721472;82;21045;-75
2021/12/18 10:12:29;;;;;;;2.15;1.25;;;;;;;1.08;72.39;100612.06;1757520;80;20997;-75
2021/12/18 10:15:15;;;;;;;1.20;0.95;;;;;;;1.08;72.51;100608.16;1776782;80;21025;-76
2021/12/18 10:17:42;;;;;;;1.85;1.00;;;;;;;1.08;72.14;100612.06;1775892;80;21048;-75
2021/12/18 10:20:15;;;;;;;1.50;1.00;;;;;;;1.10;72.25;100602.90;1776501;79;40871;-74
2021/12/18 10:22:54;;;;;;;3.12;1.30;;;;;;;1.11;72.09;100604.59;1746026;82;21008;-73
2021/12/18 10:25:40;;;;;;;1.82;1.20;;;;;;;1.11;71.75;100600.69;1746124;82;21067;-73
2021/12/18 10:28:18;;;;;;;1.40;1.02;;;;;;;1.13;71.76;100604.92;1769184;80;21771;-72
2021/12/18 10:30:48;;;;;;;1.10;1.00;;;;;;;1.15;71.70;100601.81;1776726;80;21062;-73
2021/12/18 10:33:15;;;;;;;1.67;1.30;;;;;;;1.15;71.34;100596.61;1751083;80;21838;-74
2021/12/18 10:35:55;;;;;;;1.75;1.22;;;;;;;1.11;70.97;100595.03;1702211;84;21037;-73
2021/12/18 10:38:47;;;;;;;1.80;1.15;;;;;;;1.09;70.39;100591.65;1716418;82;21071;-78
2021/12/18 10:41:28;;;;;;;1.37;0.95;;;;;;;1.03;69.70;100590.56;1704903;83;21038;-74
2021/12/18 10:44:10;;;;;;;1.70;1.00;;;;;;;1.02;69.71;100588.88;1713517;82;21479;-77
2021/12/18 10:46:40;;;;;;;1.30;0.70;;;;;;;1.02;69.55;100580.22;1705364;82;21960;-77
2021/12/18 10:49:10;;;;;;;1.15;0.60;;;;;;;1.02;69.42;100580.22;1705226;82;21044;-76
2021/12/18 10:51:38;;;;;;;1.42;0.70;;;;;;;1.00;68.97;100575.08;1707438;82;21078;-74
2021/12/18 10:54:09;;;;;;;2.25;0.80;;;;;;;0.99;68.97;100576.44;1705110;83;21046;-73
2021/12/18 10:56:40;;;;;;;1.87;0.88;;;;;;;1.00;69.18;100576.37;1695124;82;21027;-72
2021/12/18 10:59:26;;;;;;;2.25;1.02;;;;;;;1.00;68.68;100578.98;1676748;85;23060;-76
2021/12/18 11:01:59;;;;;;;1.45;0.90;;;;;;;1.00;68.47;100579.44;1707652;82;21046;-78
2021/12/18 11:04:30;;;;;;;1.20;0.80;;;;;;;0.99;68.23;100574.69;1705234;84;21058;-75
2021/12/18 11:06:56;;;;;;;1.60;0.90;;;;;;;0.98;68.31;100577.34;1705348;82;22124;-75
2021/12/18 11:09:32;;;;;;;1.30;0.95;;;;;;;0.99;68.39;100575.14;1705265;82;21081;-79
2021/12/18 11:14:47;;;;;;;1.57;0.90;;;;;;;1.00;68.24;100579.44;1705179;84;21459;-77
2021/12/18 11:17:15;;;;;;;2.10;0.82;;;;;;;0.93;68.22;100585.75;1705277;84;21079;-80
2021/12/18 11:19:43;;;;;;;2.05;1.22;;;;;;;0.91;68.17;100584.52;1705200;84;21538;-77
2021/12/18 11:22:15;;;;;;;1.77;0.95;;;;;;;0.90;68.32;100586.72;1725446;82;21054;-77
2021/12/18 11:24:53;;;;;;;1.72;1.05;;;;;;;0.93;68.56;100585.30;1715300;82;21821;-80
2021/12/18 11:27:21;;;;;;;1.70;1.00;;;;;;;0.94;68.53;100585.70;1712330;82;21078;-79
2021/12/18 11:29:56;;;;;;;1.85;1.00;;;;;;;0.89;67.71;100582.43;1710998;82;21024;-76
2021/12/18 11:32:30;;;;;;;1.85;0.95;;;;;;;0.82;67.72;100578.34;1705752;82;21667;-76
2021/12/18 11:34:59;;;;;;;1.82;0.90;;;;;;;0.76;67.63;100584.60;1704587;82;21030;-79
2021/12/18 11:37:26;;;;;;;2.65;0.70;;;;;;;0.74;67.71;100586.87;1707045;82;21819;-81
2021/12/18 11:39:58;;;;;;;1.07;0.65;;;;;;;0.71;67.60;100585.23;1732768;81;21447;-79
2021/12/18 11:42:29;;;;;;;2.25;0.90;;;;;;;0.71;67.69;100586.98;1723097;82;21069;-81
2021/12/18 11:44:56;;;;;;;1.42;0.82;;;;;;;0.70;67.94;100578.34;1727307;83;21039;-78
2021/12/18 11:47:39;;;;;;;1.55;0.68;;;;;;;0.70;68.11;100581.39;1726652;83;21075;-80
2021/12/18 11:50:37;;;;;;;0.68;0.60;;;;;;;0.68;68.35;100578.00;1725782;82;21867;-81
2021/12/18 11:53:08;;;;;;;1.10;0.70;;;;;;;0.66;68.52;100583.23;1710227;83;21044;-79
2021/12/18 11:55:51;;;;;;;1.42;0.72;;;;;;;0.67;68.65;100583.63;1726139;83;21078;-75
2021/12/18 11:58:27;;;;;;;0.78;0.60;;;;;;;0.67;68.47;100579.73;1726278;83;21420;-76
2021/12/18 12:01:00;;;;;;;0.60;0.55;;;;;;;0.69;68.73;100580.55;1727270;83;21027;-76
2021/12/18 12:03:32;;;;;;;0.95;0.78;;;;;;;0.71;68.80;100578.73;1728479;83;21775;-80
2021/12/18 12:06:01;;;;;;;0.93;0.70;;;;;;;0.71;68.29;100577.89;1726848;83;21146;-80
2021/12/18 12:08:38;;;;;;;0.78;0.60;;;;;;;0.68;67.79;100574.95;1758465;81;21082;-79
2021/12/18 12:11:27;;;;;;;0.57;0.50;;;;;;;0.67;67.68;100580.18;1785179;80;21074;-79
2021/12/18 12:14:19;;;;;;;0.78;0.50;;;;;;;0.63;66.74;100576.01;1728237;83;21077;-79
2021/12/18 12:16:51;;;;;;;0.85;0.50;;;;;;;0.61;66.70;100571.31;1757979;80;21873;-79
2021/12/18 12:19:21;;;;;;;0.47;0.40;;;;;;;0.62;66.78;100570.41;1747981;80;21075;-79